createdAt,value
2016-04-05T00:00:32.324Z,0
2016-04-05T00:01:31.530Z,0
2016-04-05T00:02:33.735Z,0
2016-04-05T00:03:34.301Z,0
2016-04-05T00:05:32.853Z,0
2016-04-05T00:06:42.215Z,0
2016-04-05T00:09:33.568Z,0
2016-04-05T00:10:33.304Z,0
2016-04-05T00:11:33.323Z,0
2016-04-05T00:12:23.701Z,0
2016-04-05T00:14:24.237Z,0
2016-04-05T00:15:40.739Z,0
2016-04-05T00:16:23.039Z,0
2016-04-05T00:17:31.729Z,0
2016-04-05T00:18:31.762Z,0
2016-04-05T00:22:31.993Z,0
2016-04-05T00:23:31.511Z,0
2016-04-05T00:24:32.123Z,0
2016-04-05T00:25:31.750Z,0
2016-04-05T00:26:33.409Z,0
2016-04-05T00:27:31.741Z,0
2016-04-05T00:28:44.622Z,0
2016-04-05T00:29:22.997Z,0
2016-04-05T00:30:31.436Z,0
2016-04-05T00:31:23.127Z,0
2016-04-05T00:33:31.711Z,0
2016-04-05T00:34:31.713Z,0
2016-04-05T00:35:37.434Z,0
2016-04-05T00:36:22.858Z,0
2016-04-05T00:37:31.049Z,0
2016-04-05T00:38:31.629Z,0
2016-04-05T00:39:32.101Z,0
2016-04-05T00:40:31.776Z,0
2016-04-05T00:41:31.200Z,0
2016-04-05T00:42:31.735Z,0
2016-04-05T00:43:31.721Z,0
2016-04-05T00:45:22.664Z,0
2016-04-05T00:46:22.870Z,0
2016-04-05T00:47:23.170Z,0
2016-04-05T00:48:22.781Z,0
2016-04-05T00:49:22.753Z,0
2016-04-05T00:51:02.883Z,0
2016-04-05T00:51:56.448Z,0
2016-04-05T00:52:23.229Z,0
2016-04-05T00:54:32.689Z,0
2016-04-05T00:55:31.691Z,0
2016-04-05T00:58:43.777Z,0
2016-04-05T00:59:47.969Z,0
2016-04-05T01:00:30.797Z,0
2016-04-05T01:01:31.816Z,0
2016-04-05T01:02:32.897Z,0
2016-04-05T01:03:31.713Z,0
2016-04-05T01:04:32.591Z,0
2016-04-05T01:05:31.156Z,0
2016-04-05T01:06:32.174Z,0
2016-04-05T01:07:40.755Z,0
2016-04-05T01:08:32.163Z,0
2016-04-05T01:10:30.747Z,0
2016-04-05T01:11:23.530Z,0
2016-04-05T01:12:32.158Z,0
2016-04-05T01:14:36.304Z,0
2016-04-05T01:15:33.135Z,0
2016-04-05T01:16:33.809Z,0
2016-04-05T01:17:31.390Z,0
2016-04-05T01:19:46.196Z,0
2016-04-05T01:20:32.555Z,0
2016-04-05T01:23:23.828Z,0
2016-04-05T01:24:32.269Z,0
2016-04-05T01:27:30.823Z,0
2016-04-05T01:30:31.472Z,0
2016-04-05T01:31:44.084Z,0
2016-04-05T01:32:31.947Z,0
2016-04-05T01:33:22.606Z,0
2016-04-05T01:34:33.561Z,0
2016-04-05T01:37:22.741Z,0
2016-04-05T01:38:22.853Z,0
2016-04-05T01:41:31.580Z,0
2016-04-05T01:42:31.208Z,0
2016-04-05T01:43:23.102Z,0
2016-04-05T01:46:22.880Z,0
2016-04-05T01:47:30.092Z,0
2016-04-05T01:48:24.438Z,0
2016-04-05T01:49:24.135Z,0
2016-04-05T01:50:23.357Z,0
2016-04-05T01:52:31.815Z,0
2016-04-05T01:53:23.568Z,0
2016-04-05T01:55:31.809Z,0
2016-04-05T01:56:32.764Z,0
2016-04-05T01:57:22.767Z,0
2016-04-05T01:58:31.128Z,0
2016-04-05T01:59:22.225Z,0
2016-04-05T02:00:22.587Z,0
2016-04-05T02:01:30.778Z,0
2016-04-05T02:02:22.483Z,0
2016-04-05T02:05:31.836Z,0
2016-04-05T02:06:32.979Z,0
2016-04-05T02:07:30.653Z,0
2016-04-05T02:08:31.098Z,0
2016-04-05T02:09:31.758Z,0
2016-04-05T02:11:23.060Z,0
2016-04-05T02:12:31.952Z,0
2016-04-05T02:13:22.815Z,0
2016-04-05T02:14:23.036Z,0
2016-04-05T02:15:31.835Z,0
2016-04-05T02:16:22.369Z,0
2016-04-05T02:17:22.418Z,0
2016-04-05T02:18:31.749Z,0
2016-04-05T02:19:31.737Z,0
2016-04-05T02:20:23.615Z,0
2016-04-05T02:21:22.899Z,0
2016-04-05T02:22:30.745Z,0
2016-04-05T02:23:22.232Z,0
2016-04-05T02:24:42.673Z,0
2016-04-05T02:25:43.815Z,0
2016-04-05T02:29:32.358Z,0
2016-04-05T02:30:34.281Z,0
2016-04-05T02:31:31.957Z,0
2016-04-05T02:34:23.449Z,0
2016-04-05T02:35:22.249Z,0
2016-04-05T02:36:30.689Z,0
2016-04-05T02:37:30.645Z,0
2016-04-05T02:38:32.507Z,0
2016-04-05T02:41:22.390Z,0
2016-04-05T02:42:31.643Z,0
2016-04-05T02:43:30.254Z,0
2016-04-05T02:47:22.161Z,0
2016-04-05T02:50:39.131Z,0
2016-04-05T02:51:22.083Z,0
2016-04-05T02:52:31.112Z,0
2016-04-05T02:53:33.595Z,0
2016-04-05T02:55:22.138Z,0
2016-04-05T02:56:21.843Z,0
2016-04-05T02:57:32.578Z,0
2016-04-05T02:59:30.705Z,0
2016-04-05T03:00:31.675Z,0
2016-04-05T03:01:35.849Z,0
2016-04-05T03:02:22.413Z,0
2016-04-05T03:03:21.806Z,0
2016-04-05T03:04:35.073Z,0
2016-04-05T03:06:13.110Z,0
2016-04-05T03:07:27.424Z,0
2016-04-05T03:08:46.411Z,0
2016-04-05T03:10:08.855Z,0
2016-04-05T03:11:25.108Z,0
2016-04-05T03:14:01.444Z,0
2016-04-05T03:15:09.462Z,0
2016-04-05T03:16:23.918Z,0
2016-04-05T03:17:47.327Z,0
2016-04-05T03:19:33.816Z,0
2016-04-05T03:21:12.696Z,0
2016-04-05T03:22:53.140Z,0
2016-04-05T03:24:35.829Z,0
2016-04-05T03:26:06.054Z,0
2016-04-05T03:27:42.948Z,0
2016-04-05T03:29:14.250Z,0
2016-04-05T03:32:19.462Z,0
2016-04-05T03:33:48.308Z,0
2016-04-05T03:34:47.170Z,0
2016-04-05T03:35:04.829Z,0
2016-04-05T03:36:07.469Z,0
2016-04-05T03:37:04.941Z,0
2016-04-05T03:38:04.865Z,0
2016-04-05T03:39:13.556Z,0
2016-04-05T03:40:04.746Z,0
2016-04-05T03:41:05.217Z,0
2016-04-05T03:42:14.844Z,0
2016-04-05T03:43:17.722Z,0
2016-04-05T03:44:06.288Z,0
2016-04-05T03:45:05.525Z,0
2016-04-05T03:46:06.574Z,0
2016-04-05T03:48:13.799Z,0
2016-04-05T03:49:07.052Z,0
2016-04-05T03:50:15.944Z,0
2016-04-05T03:51:04.713Z,0
2016-04-05T03:52:16.043Z,0
2016-04-05T03:53:14.952Z,0
2016-04-05T03:54:05.862Z,0
2016-04-05T03:55:06.552Z,0
2016-04-05T03:56:04.680Z,0
2016-04-05T03:57:07.073Z,0
2016-04-05T03:59:12.937Z,0
2016-04-05T04:00:04.690Z,0
2016-04-05T04:01:28.973Z,0
2016-04-05T04:02:04.773Z,0
2016-04-05T04:03:18.495Z,0
2016-04-05T04:04:21.591Z,0
2016-04-05T04:05:06.609Z,0
2016-04-05T04:06:06.019Z,0
2016-04-05T04:07:14.412Z,0
2016-04-05T04:08:19.509Z,0
2016-04-05T04:10:05.467Z,0
2016-04-05T04:11:05.580Z,0
2016-04-05T04:12:06.286Z,0
2016-04-05T04:13:13.522Z,0
2016-04-05T04:14:05.713Z,0
2016-04-05T04:15:06.058Z,0
2016-04-05T04:16:04.639Z,0
2016-04-05T04:17:14.533Z,0
2016-04-05T04:18:05.629Z,0
2016-04-05T04:19:04.632Z,0
2016-04-05T04:20:14.432Z,0
2016-04-05T04:21:05.824Z,0
2016-04-05T04:22:04.624Z,0
2016-04-05T04:23:04.814Z,0
2016-04-05T04:24:04.551Z,0
2016-04-05T04:26:04.635Z,0
2016-04-05T04:27:04.794Z,0
2016-04-05T04:28:04.859Z,0
2016-04-05T04:29:04.768Z,0
2016-04-05T04:30:04.895Z,0
2016-04-05T04:31:05.539Z,0
2016-04-05T04:33:06.092Z,5
2016-04-05T04:34:15.892Z,5
2016-04-05T04:35:06.034Z,5
2016-04-05T04:36:05.474Z,5
2016-04-05T04:37:05.650Z,5
2016-04-05T04:38:05.683Z,10
2016-04-05T04:39:05.405Z,10
2016-04-05T04:40:05.408Z,10
2016-04-05T04:41:05.550Z,10
2016-04-05T04:42:13.647Z,10
2016-04-05T04:43:05.931Z,10
2016-04-05T04:44:05.746Z,15
2016-04-05T04:45:04.592Z,15
2016-04-05T04:46:04.486Z,15
2016-04-05T04:47:05.583Z,15
2016-04-05T04:49:05.932Z,20
2016-04-05T04:51:05.483Z,25
2016-04-05T04:52:14.486Z,25
2016-04-05T04:53:04.504Z,25
2016-04-05T04:54:12.477Z,30
2016-04-05T04:56:14.012Z,30
2016-04-05T04:57:05.422Z,30
2016-04-05T04:58:05.674Z,35
2016-04-05T04:59:06.052Z,35
2016-04-05T05:00:05.414Z,35
2016-04-05T05:01:05.760Z,40
2016-04-05T05:02:05.342Z,40
2016-04-05T05:03:05.469Z,40
2016-04-05T05:04:15.128Z,45
2016-04-05T05:05:06.490Z,45
2016-04-05T05:06:05.117Z,50
2016-04-05T05:07:05.433Z,50
2016-04-05T05:08:05.811Z,50
2016-04-05T05:09:12.142Z,50
2016-04-05T05:11:06.616Z,55
2016-04-05T05:12:05.415Z,55
2016-04-05T05:13:05.558Z,55
2016-04-05T05:14:04.389Z,60
2016-04-05T05:15:05.111Z,60
2016-04-05T05:16:05.864Z,60
2016-04-05T05:17:05.585Z,65
2016-04-05T05:18:06.212Z,65
2016-04-05T05:20:07.140Z,70
2016-04-05T05:21:07.298Z,70
2016-04-05T05:22:07.942Z,70
2016-04-05T05:23:19.413Z,70
2016-04-05T05:24:07.166Z,75
2016-04-05T05:25:16.357Z,75
2016-04-05T05:26:07.109Z,75
2016-04-05T05:27:07.549Z,80
2016-04-05T05:28:07.443Z,80
2016-04-05T05:29:07.008Z,80
2016-04-05T05:30:07.463Z,80
2016-04-05T05:31:06.982Z,85
2016-04-05T05:32:17.672Z,85
2016-04-05T05:33:07.190Z,85
2016-04-05T05:34:18.881Z,85
2016-04-05T05:35:21.445Z,85
2016-04-05T05:36:07.167Z,85
2016-04-05T05:37:22.748Z,90
2016-04-05T05:38:07.234Z,90
2016-04-05T05:39:07.770Z,90
2016-04-05T05:40:22.287Z,90
2016-04-05T05:41:07.086Z,95
2016-04-05T05:42:19.403Z,100
2016-04-05T05:43:06.889Z,100
2016-04-05T05:44:07.048Z,105
2016-04-05T05:45:15.676Z,105
2016-04-05T05:46:06.710Z,105
2016-04-05T05:47:07.025Z,110
2016-04-05T05:48:06.871Z,110
2016-04-05T05:49:10.577Z,115
2016-04-05T05:50:06.891Z,115
2016-04-05T05:51:06.926Z,115
2016-04-05T05:52:07.351Z,120
2016-04-05T05:53:15.447Z,120
2016-04-05T05:54:07.247Z,120
2016-04-05T05:55:06.780Z,125
2016-04-05T05:56:07.362Z,125
2016-04-05T05:57:07.271Z,125
2016-04-05T05:58:07.007Z,125
2016-04-05T05:59:07.120Z,125
2016-04-05T06:00:14.076Z,125
2016-04-05T06:01:12.735Z,125
2016-04-05T06:02:22.237Z,125
2016-04-05T06:03:17.161Z,125
2016-04-05T06:04:06.462Z,125
2016-04-05T06:05:15.979Z,130
2016-04-05T06:06:06.950Z,130
2016-04-05T06:07:07.032Z,130
2016-04-05T06:08:07.706Z,130
2016-04-05T06:09:15.740Z,130
2016-04-05T06:10:07.009Z,130
2016-04-05T06:11:09.261Z,130
2016-04-05T06:12:03.873Z,130
2016-04-05T06:13:07.423Z,130
2016-04-05T06:14:06.785Z,130
2016-04-05T06:15:03.725Z,130
2016-04-05T06:16:07.353Z,130
2016-04-05T06:17:07.683Z,135
2016-04-05T06:18:06.936Z,135
2016-04-05T06:19:05.986Z,140
2016-04-05T06:20:07.176Z,140
2016-04-05T06:21:03.897Z,140
2016-04-05T06:22:06.369Z,145
2016-04-05T06:23:06.622Z,150
2016-04-05T06:24:06.391Z,155
2016-04-05T06:25:03.565Z,155
2016-04-05T06:26:06.598Z,160
2016-04-05T06:27:03.789Z,165
2016-04-05T06:28:03.901Z,175
2016-04-05T06:29:03.793Z,175
2016-04-05T06:30:06.313Z,170
2016-04-05T06:31:03.627Z,175
2016-04-05T06:32:10.255Z,175
2016-04-05T06:33:11.601Z,175
2016-04-05T06:34:06.557Z,180
2016-04-05T06:35:03.592Z,180
2016-04-05T06:36:20.625Z,180
2016-04-05T06:37:03.487Z,180
2016-04-05T06:38:12.318Z,180
2016-04-05T06:39:04.665Z,180
2016-04-05T06:40:07.511Z,175
2016-04-05T06:41:03.217Z,175
2016-04-05T06:42:12.486Z,185
2016-04-05T06:44:06.616Z,195
2016-04-05T06:45:16.556Z,190
2016-04-05T06:49:36.161Z,195
2016-04-05T06:50:06.975Z,195
2016-04-05T06:51:06.713Z,200
2016-04-05T06:52:06.278Z,215
2016-04-05T06:53:18.452Z,210
2016-04-05T06:54:06.627Z,215
2016-04-05T06:55:15.411Z,210
2016-04-05T06:56:06.554Z,215
2016-04-05T06:58:07.107Z,245
2016-04-05T06:59:06.359Z,240
2016-04-05T07:00:06.940Z,240
2016-04-05T07:01:14.693Z,255
2016-04-05T07:02:06.289Z,255
2016-04-05T07:03:06.588Z,270
2016-04-05T07:04:06.654Z,275
2016-04-05T07:05:17.047Z,290
2016-04-05T07:06:06.737Z,280
2016-04-05T07:07:06.693Z,255
2016-04-05T07:08:15.572Z,235
2016-04-05T07:09:17.013Z,240
2016-04-05T07:10:06.500Z,235
2016-04-05T07:11:06.861Z,240
2016-04-05T07:12:07.021Z,230
2016-04-05T07:13:06.117Z,220
2016-04-05T07:14:14.620Z,200
2016-04-05T07:15:05.919Z,200
2016-04-05T07:16:06.453Z,200
2016-04-05T07:17:14.628Z,195
2016-04-05T07:18:07.741Z,190
2016-04-05T07:19:06.383Z,190
2016-04-05T07:20:06.886Z,185
2016-04-05T07:21:15.233Z,185
2016-04-05T07:22:06.969Z,185
2016-04-05T07:23:06.660Z,180
2016-04-05T07:24:06.647Z,180
2016-04-05T07:25:07.915Z,185
2016-04-05T07:26:06.840Z,180
2016-04-05T07:27:06.061Z,180
2016-04-05T07:28:06.157Z,185
2016-04-05T07:29:06.129Z,180
2016-04-05T07:30:14.990Z,180
2016-04-05T07:31:06.557Z,180
2016-04-05T07:33:06.405Z,185
2016-04-05T07:34:07.017Z,180
2016-04-05T07:35:07.286Z,180
2016-04-05T07:37:07.291Z,175
2016-04-05T07:38:06.904Z,175
2016-04-05T07:39:06.984Z,175
2016-04-05T07:40:07.064Z,175
2016-04-05T07:41:06.630Z,175
2016-04-05T07:42:06.820Z,175
2016-04-05T07:43:06.433Z,175
2016-04-05T07:44:06.794Z,175
2016-04-05T07:46:06.566Z,180
2016-04-05T07:47:06.599Z,175
2016-04-05T07:48:07.118Z,175
2016-04-05T07:49:07.183Z,175
2016-04-05T07:50:07.420Z,175
2016-04-05T07:51:06.454Z,175
2016-04-05T07:52:06.129Z,175
2016-04-05T07:53:06.428Z,175
2016-04-05T07:54:07.149Z,175
2016-04-05T07:55:06.980Z,175
2016-04-05T07:56:54.421Z,180
2016-04-05T07:58:17.598Z,180
2016-04-05T07:59:36.991Z,180
2016-04-05T08:00:49.712Z,180
2016-04-05T08:02:05.811Z,180
2016-04-05T08:03:27.877Z,180
2016-04-05T08:04:45.723Z,180
2016-04-05T08:06:03.698Z,180
2016-04-05T08:07:23.012Z,185
2016-04-05T08:08:38.281Z,185
2016-04-05T08:09:53.034Z,185
2016-04-05T08:11:08.133Z,185
2016-04-05T08:12:27.260Z,185
2016-04-05T08:13:45.982Z,185
2016-04-05T08:15:07.675Z,185
2016-04-05T08:16:30.146Z,185
2016-04-05T08:17:51.180Z,185
2016-04-05T08:19:10.029Z,190
2016-04-05T08:20:29.783Z,190
2016-04-05T08:21:52.566Z,195
2016-04-05T08:23:08.946Z,200
2016-04-05T08:24:31.792Z,205
2016-04-05T08:25:36.686Z,205
2016-04-05T08:25:52.061Z,205
2016-04-05T08:27:51.301Z,200
2016-04-05T08:28:06.585Z,200
2016-04-05T08:29:22.946Z,200
2016-04-05T08:30:06.621Z,200
2016-04-05T08:31:08.046Z,200
2016-04-05T08:33:06.879Z,200
2016-04-05T08:34:06.742Z,205
2016-04-05T08:35:07.666Z,200
2016-04-05T08:36:15.731Z,200
2016-04-05T08:37:08.140Z,200
2016-04-05T08:38:06.752Z,200
2016-04-05T08:39:06.958Z,185
2016-04-05T08:41:10.385Z,205
2016-04-05T08:42:06.623Z,200
2016-04-05T08:43:06.594Z,210
2016-04-05T08:44:07.236Z,210
2016-04-05T08:45:11.114Z,205
2016-04-05T08:46:25.149Z,200
2016-04-05T08:47:07.136Z,200
2016-04-05T08:48:06.966Z,200
2016-04-05T08:49:10.517Z,200
2016-04-05T08:50:06.503Z,195
2016-04-05T08:51:07.068Z,200
2016-04-05T08:52:07.133Z,200
2016-04-05T08:53:09.323Z,200
2016-04-05T08:54:06.671Z,200
2016-04-05T08:55:06.469Z,200
2016-04-05T08:56:07.019Z,200
2016-04-05T08:57:09.179Z,200
2016-04-05T08:58:19.321Z,200
2016-04-05T08:59:14.434Z,200
2016-04-05T09:00:09.655Z,200
2016-04-05T09:01:18.392Z,195
2016-04-05T09:02:10.129Z,200
2016-04-05T09:04:09.041Z,195
2016-04-05T09:05:09.465Z,195
2016-04-05T09:06:09.734Z,195
2016-04-05T09:07:09.548Z,195
2016-04-05T09:08:09.645Z,195
2016-04-05T09:09:09.867Z,195
2016-04-05T09:11:09.784Z,200
2016-04-05T09:12:10.270Z,200
2016-04-05T09:13:08.430Z,200
2016-04-05T09:14:18.088Z,200
2016-04-05T09:15:10.200Z,205
2016-04-05T09:16:06.891Z,205
2016-04-05T09:18:19.302Z,210
2016-04-05T09:19:09.586Z,210
2016-04-05T09:21:10.029Z,215
2016-04-05T09:24:10.130Z,215
2016-04-05T09:25:09.852Z,215
2016-04-05T09:26:09.339Z,215
2016-04-05T09:27:10.046Z,220
2016-04-05T09:28:10.423Z,220
2016-04-05T09:29:22.691Z,225
2016-04-05T09:30:10.115Z,220
2016-04-05T09:31:10.603Z,220
2016-04-05T09:32:09.965Z,225
2016-04-05T09:35:10.082Z,240
2016-04-05T09:36:10.804Z,245
2016-04-05T09:37:06.620Z,250
2016-04-05T09:38:09.543Z,285
2016-04-05T09:40:09.627Z,305
2016-04-05T09:41:06.505Z,315
2016-04-05T09:42:06.444Z,315
2016-04-05T09:44:23.794Z,350
2016-04-05T09:45:10.202Z,365
2016-04-05T09:46:09.346Z,395
2016-04-05T09:47:09.677Z,440
2016-04-05T09:48:09.429Z,470
2016-04-05T09:49:09.869Z,500
2016-04-05T09:50:10.155Z,510
2016-04-05T09:51:09.516Z,520
2016-04-05T09:52:09.705Z,525
2016-04-05T09:53:09.631Z,530
2016-04-05T09:54:10.868Z,535
2016-04-05T15:28:43.883Z,190
2016-04-05T15:29:43.308Z,190
2016-04-05T15:30:42.983Z,185
2016-04-05T15:31:44.236Z,185
2016-04-05T15:32:43.973Z,190
2016-04-05T15:33:44.132Z,200
2016-04-05T15:34:44.213Z,205
2016-04-05T15:35:44.574Z,205
2016-04-05T15:36:44.577Z,205
2016-04-05T15:37:45.986Z,195
2016-04-05T15:38:44.863Z,190
2016-04-05T15:39:45.163Z,190
